Hlavní strana
METAR-TAF:

METAR-TAF

Letiště :

Mezinárodní letiště Tocumen

Tocumen, Panama

zeměpisná šířka: 09-03N, zeměpisná délka: 079-22W, výška: 45 m

Aktuální stav počasí

Zpráva byla vytvořena před 1 hodinou a 2 minutami, v 11:00 UTC
Severozápadní vítr 4 kt
Teplota 24°C
Vlhkost vzduchu 83%
Tlak 1011 hPa
Viditelnost 10 km a více
Skoro jasno ve výšce 1800 ft

METAR: MPTO 241100Z 32004KT 9999 FEW018 24/21 Q1011 NOSIG

Čas: 07:02 (12:02 UTC)

Předpověď počasí

Zpráva byla vytvořena před 1 hodinou a 32 minutami, v 10:30 UTC
Předpověď platná od 24 v 12 UTC do 25 v 18 UTC
Severoseverozápadní vítr 8 kt
Viditelnost 10 km a více
Polojasno ve výšce 2000 ft
Dočasný
od 24 v 10 UTC do 24 v 12 UTC
vítr z různých směrů 2 kt
Změna
od 24 v 18 UTC do 24 v 22 UTC
Západoseverozápadní vítr 14 kt
Viditelnost: 9000 m
Polojasno ve výšce 1600 ft
Polojasno ve výšce 10000 ft
přeháňky v blízkosti

TAF: MPTO 241030Z 2412/2518 34008KT 9999 SCT020 TEMPO 2410/2412 VRB02KT BECMG 2418/2422 30014KT 9000 VCSH SCT016 SCT100

Stav a předpovědi počasí z více než 4 000 letišť (zprávy METAR a TAF).

Červené a žluté tečky na mapě představují dostupné meteorologické stanice.

Když kurzor umístíte na tečku, zobrazí se název stanice.

Pak kliknutím zobrazíte stav a předpověď počasí.

Chcete-li změnit mapu, kliknutím na zelené tlačítko se znaménkem +mapu přiblížíte, kliknutím na zelené tlačítko se znaménkem – mapu oddálíte a kliknutím na zelené šipky přejdete na sousední mapy.


METAR-TAF: